sensor_id;sensor_type;location;lat;lon;timestamp;temperature;humidity
5334;DHT22;2689;50.954;7.116;2024-03-23T00:56:01;9.70;99.90
5334;DHT22;2689;50.954;7.116;2024-03-23T01:15:36;9.50;99.90
5334;DHT22;2689;50.954;7.116;2024-03-23T01:18:03;9.40;99.90
5334;DHT22;2689;50.954;7.116;2024-03-23T01:20:29;9.40;99.90
5334;DHT22;2689;50.954;7.116;2024-03-23T01:22:55;9.30;99.90
5334;DHT22;2689;50.954;7.116;2024-03-23T01:25:22;9.30;99.90
5334;DHT22;2689;50.954;7.116;2024-03-23T01:35:09;9.00;99.90
5334;DHT22;2689;50.954;7.116;2024-03-23T01:40:03;8.90;99.90
5334;DHT22;2689;50.954;7.116;2024-03-23T01:49:51;8.90;99.90
5334;DHT22;2689;50.954;7.116;2024-03-23T01:52:17;8.90;99.90
5334;DHT22;2689;50.954;7.116;2024-03-23T01:54:44;8.80;99.90
5334;DHT22;2689;50.954;7.116;2024-03-23T01:57:10;8.80;99.90
5334;DHT22;2689;50.954;7.116;2024-03-23T01:59:39;8.70;99.90
5334;DHT22;2689;50.954;7.116;2024-03-23T02:02:05;8.80;99.90
5334;DHT22;2689;50.954;7.116;2024-03-23T02:04:33;8.60;99.90
5334;DHT22;2689;50.954;7.116;2024-03-23T02:06:59;8.60;99.90
5334;DHT22;2689;50.954;7.116;2024-03-23T02:09:26;8.70;99.90
5334;DHT22;2689;50.954;7.116;2024-03-23T02:11:52;8.60;99.90
5334;DHT22;2689;50.954;7.116;2024-03-23T02:14:18;8.60;99.90
5334;DHT22;2689;50.954;7.116;2024-03-23T02:16:44;8.70;99.90
5334;DHT22;2689;50.954;7.116;2024-03-23T02:19:12;8.60;99.90
5334;DHT22;2689;50.954;7.116;2024-03-23T02:21:39;9.70;99.90
5334;DHT22;2689;50.954;7.116;2024-03-23T02:24:08;8.50;99.90
5334;DHT22;2689;50.954;7.116;2024-03-23T02:26:34;8.50;99.90
5334;DHT22;2689;50.954;7.116;2024-03-23T02:29:00;8.50;99.90
5334;DHT22;2689;50.954;7.116;2024-03-23T02:31:27;8.40;99.90
5334;DHT22;2689;50.954;7.116;2024-03-23T02:33:54;9.40;99.90
5334;DHT22;2689;50.954;7.116;2024-03-23T02:38:46;8.40;99.90
5334;DHT22;2689;50.954;7.116;2024-03-23T02:41:14;8.30;99.90
5334;DHT22;2689;50.954;7.116;2024-03-23T02:43:41;8.20;99.90
5334;DHT22;2689;50.954;7.116;2024-03-23T02:46:06;8.20;99.90
5334;DHT22;2689;50.954;7.116;2024-03-23T02:48:33;8.20;99.90
5334;DHT22;2689;50.954;7.116;2024-03-23T02:50:59;8.20;99.90
5334;DHT22;2689;50.954;7.116;2024-03-23T02:53:26;8.20;99.90
5334;DHT22;2689;50.954;7.116;2024-03-23T02:55:51;8.10;99.90
5334;DHT22;2689;50.954;7.116;2024-03-23T02:58:19;8.10;99.90
5334;DHT22;2689;50.954;7.116;2024-03-23T03:00:45;8.00;99.90
5334;DHT22;2689;50.954;7.116;2024-03-23T03:03:12;8.00;99.90
5334;DHT22;2689;50.954;7.116;2024-03-23T03:08:05;7.80;99.90
5334;DHT22;2689;50.954;7.116;2024-03-23T03:13:00;7.60;99.90
5334;DHT22;2689;50.954;7.116;2024-03-23T03:15:27;7.60;99.90
5334;DHT22;2689;50.954;7.116;2024-03-23T03:17:54;7.60;99.90
5334;DHT22;2689;50.954;7.116;2024-03-23T03:20:20;7.60;99.90
5334;DHT22;2689;50.954;7.116;2024-03-23T03:22:48;7.60;99.90
5334;DHT22;2689;50.954;7.116;2024-03-23T03:27:41;7.50;99.90
5334;DHT22;2689;50.954;7.116;2024-03-23T03:30:08;7.50;99.90
5334;DHT22;2689;50.954;7.116;2024-03-23T03:32:36;7.50;99.90
5334;DHT22;2689;50.954;7.116;2024-03-23T03:37:30;7.60;99.90
5334;DHT22;2689;50.954;7.116;2024-03-23T03:44:49;7.60;99.90
5334;DHT22;2689;50.954;7.116;2024-03-23T03:47:15;7.60;99.90
5334;DHT22;2689;50.954;7.116;2024-03-23T03:49:42;7.60;99.90
5334;DHT22;2689;50.954;7.116;2024-03-23T03:52:09;7.60;99.90
5334;DHT22;2689;50.954;7.116;2024-03-23T03:54:35;7.60;99.90
5334;DHT22;2689;50.954;7.116;2024-03-23T03:57:02;7.60;99.90
5334;DHT22;2689;50.954;7.116;2024-03-23T03:59:29;7.50;99.90
5334;DHT22;2689;50.954;7.116;2024-03-23T04:01:55;7.60;99.90
5334;DHT22;2689;50.954;7.116;2024-03-23T04:04:21;7.60;99.90
5334;DHT22;2689;50.954;7.116;2024-03-23T04:06:49;7.60;99.90
5334;DHT22;2689;50.954;7.116;2024-03-23T04:09:15;7.60;99.90
5334;DHT22;2689;50.954;7.116;2024-03-23T04:11:42;7.60;99.90
5334;DHT22;2689;50.954;7.116;2024-03-23T04:14:07;7.50;99.90
5334;DHT22;2689;50.954;7.116;2024-03-23T04:16:35;7.50;99.90
5334;DHT22;2689;50.954;7.116;2024-03-23T04:19:01;7.40;99.90
5334;DHT22;2689;50.954;7.116;2024-03-23T04:21:28;7.40;99.90
5334;DHT22;2689;50.954;7.116;2024-03-23T04:23:55;7.60;99.90
5334;DHT22;2689;50.954;7.116;2024-03-23T04:26:21;7.60;99.90
5334;DHT22;2689;50.954;7.116;2024-03-23T04:28:47;7.50;99.90
5334;DHT22;2689;50.954;7.116;2024-03-23T04:31:14;7.50;99.90
5334;DHT22;2689;50.954;7.116;2024-03-23T04:33:40;7.50;99.90
5334;DHT22;2689;50.954;7.116;2024-03-23T04:36:07;7.50;99.90
5334;DHT22;2689;50.954;7.116;2024-03-23T04:38:32;7.40;99.90
5334;DHT22;2689;50.954;7.116;2024-03-23T04:41:01;7.40;99.90
5334;DHT22;2689;50.954;7.116;2024-03-23T04:43:28;7.40;99.90
5334;DHT22;2689;50.954;7.116;2024-03-23T04:48:22;7.30;99.90
5334;DHT22;2689;50.954;7.116;2024-03-23T04:50:49;7.30;99.90
5334;DHT22;2689;50.954;7.116;2024-03-23T04:55:42;7.20;99.90
5334;DHT22;2689;50.954;7.116;2024-03-23T04:58:11;7.10;99.90
5334;DHT22;2689;50.954;7.116;2024-03-23T05:00:36;7.10;99.90
5334;DHT22;2689;50.954;7.116;2024-03-23T05:03:03;7.00;99.90
5334;DHT22;2689;50.954;7.116;2024-03-23T05:05:30;7.10;99.90
5334;DHT22;2689;50.954;7.116;2024-03-23T05:10:23;7.00;99.90
5334;DHT22;2689;50.954;7.116;2024-03-23T05:22:38;7.10;99.90
5334;DHT22;2689;50.954;7.116;2024-03-23T06:01:53;7.00;99.90
5334;DHT22;2689;50.954;7.116;2024-03-23T06:04:20;7.00;99.90
5334;DHT22;2689;50.954;7.116;2024-03-23T06:06:48;7.00;99.90
5334;DHT22;2689;50.954;7.116;2024-03-23T06:09:15;6.90;99.90
5334;DHT22;2689;50.954;7.116;2024-03-23T06:16:34;7.00;99.90
5334;DHT22;2689;50.954;7.116;2024-03-23T06:31:21;7.20;99.90
5334;DHT22;2689;50.954;7.116;2024-03-23T06:33:47;7.10;99.90
5334;DHT22;2689;50.954;7.116;2024-03-23T06:36:14;7.30;99.90
5334;DHT22;2689;50.954;7.116;2024-03-23T06:55:51;7.40;99.90
5334;DHT22;2689;50.954;7.116;2024-03-23T07:05:39;7.60;99.90
5334;DHT22;2689;50.954;7.116;2024-03-23T07:30:08;8.80;99.90
5334;DHT22;2689;50.954;7.116;2024-03-23T08:36:32;16.10;83.30
5334;DHT22;2689;50.954;7.116;2024-03-23T08:41:52;16.10;77.30
5334;DHT22;2689;50.954;7.116;2024-03-23T09:11:39;12.70;86.20
5334;DHT22;2689;50.954;7.116;2024-03-23T09:41:08;10.20;91.10
5334;DHT22;2689;50.954;7.116;2024-03-23T09:48:36;9.40;91.10
5334;DHT22;2689;50.954;7.116;2024-03-23T10:03:23;11.10;84.90
5334;DHT22;2689;50.954;7.116;2024-03-23T10:06:00;12.40;84.10
5334;DHT22;2689;50.954;7.116;2024-03-23T10:08:29;12.70;76.90
5334;DHT22;2689;50.954;7.116;2024-03-23T10:13:25;12.10;78.50
5334;DHT22;2689;50.954;7.116;2024-03-23T10:15:58;11.70;79.60
5334;DHT22;2689;50.954;7.116;2024-03-23T10:21:07;12.30;80.30
5334;DHT22;2689;50.954;7.116;2024-03-23T10:23:37;13.50;76.70
5334;DHT22;2689;50.954;7.116;2024-03-23T10:26:17;14.00;74.80
5334;DHT22;2689;50.954;7.116;2024-03-23T10:33:51;11.80;76.30
5334;DHT22;2689;50.954;7.116;2024-03-23T10:36:19;11.30;78.10
5334;DHT22;2689;50.954;7.116;2024-03-23T10:38:47;11.00;79.70
5334;DHT22;2689;50.954;7.116;2024-03-23T10:43:43;10.40;81.80
5334;DHT22;2689;50.954;7.116;2024-03-23T10:53:33;9.40;88.70
5334;DHT22;2689;50.954;7.116;2024-03-23T10:58:30;9.00;90.50
5334;DHT22;2689;50.954;7.116;2024-03-23T11:03:33;9.00;91.00
5334;DHT22;2689;50.954;7.116;2024-03-23T11:08:35;7.30;91.50
5334;DHT22;2689;50.954;7.116;2024-03-23T11:11:28;9.50;90.60
5334;DHT22;2689;50.954;7.116;2024-03-23T11:13:58;9.20;90.50
5334;DHT22;2689;50.954;7.116;2024-03-23T11:16:25;9.00;91.30
5334;DHT22;2689;50.954;7.116;2024-03-23T11:19:33;8.50;92.30
5334;DHT22;2689;50.954;7.116;2024-03-23T11:24:27;8.10;95.00
5334;DHT22;2689;50.954;7.116;2024-03-23T11:31:47;8.30;96.30
5334;DHT22;2689;50.954;7.116;2024-03-23T11:34:15;9.90;98.20
5334;DHT22;2689;50.954;7.116;2024-03-23T11:39:12;9.10;94.80
5334;DHT22;2689;50.954;7.116;2024-03-23T11:41:47;8.50;95.90
5334;DHT22;2689;50.954;7.116;2024-03-23T11:49:20;7.70;98.90
5334;DHT22;2689;50.954;7.116;2024-03-23T11:59:09;8.10;99.90
5334;DHT22;2689;50.954;7.116;2024-03-23T12:01:37;8.20;99.90
5334;DHT22;2689;50.954;7.116;2024-03-23T12:09:06;8.00;98.70
5334;DHT22;2689;50.954;7.116;2024-03-23T12:14:00;7.90;99.90
5334;DHT22;2689;50.954;7.116;2024-03-23T12:16:27;9.30;99.90
5334;DHT22;2689;50.954;7.116;2024-03-23T12:19:05;8.00;99.90
5334;DHT22;2689;50.954;7.116;2024-03-23T12:33:46;11.20;96.80
5334;DHT22;2689;50.954;7.116;2024-03-23T12:46:07;8.90;95.50
5334;DHT22;2689;50.954;7.116;2024-03-23T13:00:50;8.00;99.60
5334;DHT22;2689;50.954;7.116;2024-03-23T13:25:23;11.10;86.60
5334;DHT22;2689;50.954;7.116;2024-03-23T13:42:32;13.90;80.00
5334;DHT22;2689;50.954;7.116;2024-03-23T13:52:22;12.70;78.30
5334;DHT22;2689;50.954;7.116;2024-03-23T13:59:48;11.80;81.40
5334;DHT22;2689;50.954;7.116;2024-03-23T14:12:06;10.70;82.90
5334;DHT22;2689;50.954;7.116;2024-03-23T14:14:34;10.30;83.20
5334;DHT22;2689;50.954;7.116;2024-03-23T14:34:10;9.00;82.50
5334;DHT22;2689;50.954;7.116;2024-03-23T14:41:30;9.40;82.30
5334;DHT22;2689;50.954;7.116;2024-03-23T14:51:22;9.80;81.80
5334;DHT22;2689;50.954;7.116;2024-03-23T15:25:53;6.60;99.10
5334;DHT22;2689;50.954;7.116;2024-03-23T15:38:06;6.60;99.90
5334;DHT22;2689;50.954;7.116;2024-03-23T15:43:01;7.20;99.90
5334;DHT22;2689;50.954;7.116;2024-03-23T16:10:05;7.40;99.90
5334;DHT22;2689;50.954;7.116;2024-03-23T16:15:01;7.30;99.90
5334;DHT22;2689;50.954;7.116;2024-03-23T16:17:29;7.40;99.90
5334;DHT22;2689;50.954;7.116;2024-03-23T16:20:01;7.50;99.90
5334;DHT22;2689;50.954;7.116;2024-03-23T16:22:27;7.60;99.90
5334;DHT22;2689;50.954;7.116;2024-03-23T16:24:57;7.60;99.90
5334;DHT22;2689;50.954;7.116;2024-03-23T16:35:07;7.10;99.90
5334;DHT22;2689;50.954;7.116;2024-03-23T16:40:30;7.20;99.90
5334;DHT22;2689;50.954;7.116;2024-03-23T16:40:57;7.40;99.90
5334;DHT22;2689;50.954;7.116;2024-03-23T16:43:40;7.50;99.90
5334;DHT22;2689;50.954;7.116;2024-03-23T16:46:15;7.60;99.90
5334;DHT22;2689;50.954;7.116;2024-03-23T16:48:42;7.70;99.90
5334;DHT22;2689;50.954;7.116;2024-03-23T16:51:15;7.90;99.90
5334;DHT22;2689;50.954;7.116;2024-03-23T16:53:44;7.80;99.00
5334;DHT22;2689;50.954;7.116;2024-03-23T16:56:20;7.80;98.80
5334;DHT22;2689;50.954;7.116;2024-03-23T16:58:46;7.90;98.70
5334;DHT22;2689;50.954;7.116;2024-03-23T17:01:18;7.80;98.70
5334;DHT22;2689;50.954;7.116;2024-03-23T17:03:56;7.80;99.00
5334;DHT22;2689;50.954;7.116;2024-03-23T17:06:42;7.80;98.90
5334;DHT22;2689;50.954;7.116;2024-03-23T17:13:32;7.70;99.20
5334;DHT22;2689;50.954;7.116;2024-03-23T17:16:04;7.60;99.30
5334;DHT22;2689;50.954;7.116;2024-03-23T17:18:31;7.30;99.00
5334;DHT22;2689;50.954;7.116;2024-03-23T17:20:59;7.10;99.90
5334;DHT22;2689;50.954;7.116;2024-03-23T17:23:43;7.20;99.90
5334;DHT22;2689;50.954;7.116;2024-03-23T17:26:11;7.30;99.70
5334;DHT22;2689;50.954;7.116;2024-03-23T17:28:43;7.40;99.90
5334;DHT22;2689;50.954;7.116;2024-03-23T17:31:15;7.20;99.90
5334;DHT22;2689;50.954;7.116;2024-03-23T17:33:41;7.20;99.90
5334;DHT22;2689;50.954;7.116;2024-03-23T17:36:12;7.00;99.90
5334;DHT22;2689;50.954;7.116;2024-03-23T17:38:40;6.90;99.90
5334;DHT22;2689;50.954;7.116;2024-03-23T17:44:11;6.70;99.90
5334;DHT22;2689;50.954;7.116;2024-03-23T17:46:40;6.60;99.90
5334;DHT22;2689;50.954;7.116;2024-03-23T17:49:06;6.50;99.90
5334;DHT22;2689;50.954;7.116;2024-03-23T17:51:38;6.60;99.90
5334;DHT22;2689;50.954;7.116;2024-03-23T17:54:04;6.50;99.90
5334;DHT22;2689;50.954;7.116;2024-03-23T17:56:33;6.40;99.90
5334;DHT22;2689;50.954;7.116;2024-03-23T17:59:00;6.40;99.90
5334;DHT22;2689;50.954;7.116;2024-03-23T18:01:29;6.40;99.90
5334;DHT22;2689;50.954;7.116;2024-03-23T18:03:55;6.40;99.90
5334;DHT22;2689;50.954;7.116;2024-03-23T18:06:23;6.40;99.90
5334;DHT22;2689;50.954;7.116;2024-03-23T18:08:50;6.40;99.90
5334;DHT22;2689;50.954;7.116;2024-03-23T18:11:22;6.40;99.90
5334;DHT22;2689;50.954;7.116;2024-03-23T18:13:48;6.40;99.90
5334;DHT22;2689;50.954;7.116;2024-03-23T18:16:15;6.30;99.90
5334;DHT22;2689;50.954;7.116;2024-03-23T18:18:47;6.20;99.90
5334;DHT22;2689;50.954;7.116;2024-03-23T18:21:14;6.20;99.90
5334;DHT22;2689;50.954;7.116;2024-03-23T18:23:40;6.20;99.90
5334;DHT22;2689;50.954;7.116;2024-03-23T18:26:08;6.20;99.90
5334;DHT22;2689;50.954;7.116;2024-03-23T18:28:34;6.20;99.90
5334;DHT22;2689;50.954;7.116;2024-03-23T18:31:01;6.30;99.90
5334;DHT22;2689;50.954;7.116;2024-03-23T18:33:32;6.30;99.90
5334;DHT22;2689;50.954;7.116;2024-03-23T18:36:05;6.30;99.90
5334;DHT22;2689;50.954;7.116;2024-03-23T18:38:30;6.30;99.90
5334;DHT22;2689;50.954;7.116;2024-03-23T18:41:00;6.30;99.90
5334;DHT22;2689;50.954;7.116;2024-03-23T18:43:35;6.30;99.90
5334;DHT22;2689;50.954;7.116;2024-03-23T18:46:22;6.50;99.90
5334;DHT22;2689;50.954;7.116;2024-03-23T18:49:33;6.50;99.90
5334;DHT22;2689;50.954;7.116;2024-03-23T18:52:06;6.60;99.90
5334;DHT22;2689;50.954;7.116;2024-03-23T18:54:33;6.30;99.90
5334;DHT22;2689;50.954;7.116;2024-03-23T18:57:04;6.10;99.90
5334;DHT22;2689;50.954;7.116;2024-03-23T18:59:32;6.10;99.90
5334;DHT22;2689;50.954;7.116;2024-03-23T19:01:59;6.00;99.90
5334;DHT22;2689;50.954;7.116;2024-03-23T19:04:25;5.70;99.90
5334;DHT22;2689;50.954;7.116;2024-03-23T19:06:53;5.70;99.90
5334;DHT22;2689;50.954;7.116;2024-03-23T19:09:20;5.60;99.90
5334;DHT22;2689;50.954;7.116;2024-03-23T19:11:50;5.20;99.90
5334;DHT22;2689;50.954;7.116;2024-03-23T19:14:16;5.10;99.90
5334;DHT22;2689;50.954;7.116;2024-03-23T19:16:43;5.00;99.90
5334;DHT22;2689;50.954;7.116;2024-03-23T19:19:10;5.00;99.90
5334;DHT22;2689;50.954;7.116;2024-03-23T19:21:36;4.90;99.90
5334;DHT22;2689;50.954;7.116;2024-03-23T19:24:04;4.80;99.90
5334;DHT22;2689;50.954;7.116;2024-03-23T19:26:31;4.70;99.90
5334;DHT22;2689;50.954;7.116;2024-03-23T19:28:58;4.70;99.90
5334;DHT22;2689;50.954;7.116;2024-03-23T19:31:24;4.80;99.90
5334;DHT22;2689;50.954;7.116;2024-03-23T19:33:51;4.80;99.90
5334;DHT22;2689;50.954;7.116;2024-03-23T19:36:17;4.90;99.90
5334;DHT22;2689;50.954;7.116;2024-03-23T19:38:44;4.80;99.90
5334;DHT22;2689;50.954;7.116;2024-03-23T19:41:10;4.70;99.90
5334;DHT22;2689;50.954;7.116;2024-03-23T19:43:39;4.90;99.90
5334;DHT22;2689;50.954;7.116;2024-03-23T19:46:04;4.70;99.90
5334;DHT22;2689;50.954;7.116;2024-03-23T19:48:31;4.70;99.90
5334;DHT22;2689;50.954;7.116;2024-03-23T19:50:58;4.70;99.90
5334;DHT22;2689;50.954;7.116;2024-03-23T19:53:25;4.70;99.90
5334;DHT22;2689;50.954;7.116;2024-03-23T19:55:53;4.70;99.90
5334;DHT22;2689;50.954;7.116;2024-03-23T19:58:20;4.70;99.90
5334;DHT22;2689;50.954;7.116;2024-03-23T20:00:48;4.70;99.90
5334;DHT22;2689;50.954;7.116;2024-03-23T20:03:14;4.80;99.90
5334;DHT22;2689;50.954;7.116;2024-03-23T20:05:40;4.70;99.90
5334;DHT22;2689;50.954;7.116;2024-03-23T20:08:07;4.70;99.90
5334;DHT22;2689;50.954;7.116;2024-03-23T20:10:34;4.70;99.90
5334;DHT22;2689;50.954;7.116;2024-03-23T20:13:01;4.70;99.90
5334;DHT22;2689;50.954;7.116;2024-03-23T20:15:29;4.70;99.90
5334;DHT22;2689;50.954;7.116;2024-03-23T20:18:02;4.80;99.90
5334;DHT22;2689;50.954;7.116;2024-03-23T20:20:28;4.80;99.90
5334;DHT22;2689;50.954;7.116;2024-03-23T20:22:55;4.80;99.90
5334;DHT22;2689;50.954;7.116;2024-03-23T20:25:21;4.70;99.90
5334;DHT22;2689;50.954;7.116;2024-03-23T20:27:47;4.70;99.90
5334;DHT22;2689;50.954;7.116;2024-03-23T20:30:13;4.70;99.90
5334;DHT22;2689;50.954;7.116;2024-03-23T20:32:40;4.70;99.90
5334;DHT22;2689;50.954;7.116;2024-03-23T20:35:08;4.80;99.90
5334;DHT22;2689;50.954;7.116;2024-03-23T20:37:35;4.90;99.90
5334;DHT22;2689;50.954;7.116;2024-03-23T20:40:01;4.90;99.90
5334;DHT22;2689;50.954;7.116;2024-03-23T20:42:28;5.00;99.90
5334;DHT22;2689;50.954;7.116;2024-03-23T20:44:54;5.00;99.90
5334;DHT22;2689;50.954;7.116;2024-03-23T20:47:23;4.90;99.90
5334;DHT22;2689;50.954;7.116;2024-03-23T20:49:49;4.90;99.90
5334;DHT22;2689;50.954;7.116;2024-03-23T20:52:17;4.80;99.90
5334;DHT22;2689;50.954;7.116;2024-03-23T20:54:43;4.90;99.90
5334;DHT22;2689;50.954;7.116;2024-03-23T20:57:10;4.90;99.90
5334;DHT22;2689;50.954;7.116;2024-03-23T20:59:36;5.00;99.90
5334;DHT22;2689;50.954;7.116;2024-03-23T21:02:03;4.90;99.90
5334;DHT22;2689;50.954;7.116;2024-03-23T21:04:29;4.90;99.90
5334;DHT22;2689;50.954;7.116;2024-03-23T21:06:55;4.90;99.90
5334;DHT22;2689;50.954;7.116;2024-03-23T21:09:24;4.90;99.90
5334;DHT22;2689;50.954;7.116;2024-03-23T21:11:50;4.90;99.90
5334;DHT22;2689;50.954;7.116;2024-03-23T21:14:17;4.90;99.90
5334;DHT22;2689;50.954;7.116;2024-03-23T21:16:43;4.90;99.90
5334;DHT22;2689;50.954;7.116;2024-03-23T21:19:10;4.90;99.90
5334;DHT22;2689;50.954;7.116;2024-03-23T21:21:35;4.90;99.90
5334;DHT22;2689;50.954;7.116;2024-03-23T21:24:03;5.00;99.90
5334;DHT22;2689;50.954;7.116;2024-03-23T21:26:31;5.00;99.90
5334;DHT22;2689;50.954;7.116;2024-03-23T21:28:59;4.90;99.90
5334;DHT22;2689;50.954;7.116;2024-03-23T21:31:25;5.10;99.90
5334;DHT22;2689;50.954;7.116;2024-03-23T21:33:52;5.10;99.90
5334;DHT22;2689;50.954;7.116;2024-03-23T21:36:18;5.10;99.90
5334;DHT22;2689;50.954;7.116;2024-03-23T21:38:45;5.10;99.90
5334;DHT22;2689;50.954;7.116;2024-03-23T21:41:12;5.30;99.90
5334;DHT22;2689;50.954;7.116;2024-03-23T21:43:40;5.30;99.90
5334;DHT22;2689;50.954;7.116;2024-03-23T21:46:06;5.30;99.90
5334;DHT22;2689;50.954;7.116;2024-03-23T21:48:33;5.20;99.90
5334;DHT22;2689;50.954;7.116;2024-03-23T21:51:00;5.20;99.90
5334;DHT22;2689;50.954;7.116;2024-03-23T21:53:27;5.10;99.90
5334;DHT22;2689;50.954;7.116;2024-03-23T21:55:53;5.00;99.90
5334;DHT22;2689;50.954;7.116;2024-03-23T21:58:22;5.10;99.90
5334;DHT22;2689;50.954;7.116;2024-03-23T22:00:49;5.00;99.90
5334;DHT22;2689;50.954;7.116;2024-03-23T22:03:16;5.00;99.90
5334;DHT22;2689;50.954;7.116;2024-03-23T22:05:42;5.00;99.90
5334;DHT22;2689;50.954;7.116;2024-03-23T22:08:09;5.00;99.90
5334;DHT22;2689;50.954;7.116;2024-03-23T22:10:35;5.00;99.90
5334;DHT22;2689;50.954;7.116;2024-03-23T22:13:05;5.00;99.90
5334;DHT22;2689;50.954;7.116;2024-03-23T22:15:31;5.00;99.90
5334;DHT22;2689;50.954;7.116;2024-03-23T22:18:00;5.10;99.90
5334;DHT22;2689;50.954;7.116;2024-03-23T22:20:27;5.20;99.90
5334;DHT22;2689;50.954;7.116;2024-03-23T22:22:54;5.30;99.90
5334;DHT22;2689;50.954;7.116;2024-03-23T22:25:20;5.30;99.90
5334;DHT22;2689;50.954;7.116;2024-03-23T22:27:47;5.40;99.90
5334;DHT22;2689;50.954;7.116;2024-03-23T22:30:13;5.30;99.90
5334;DHT22;2689;50.954;7.116;2024-03-23T22:32:39;5.50;99.90
5334;DHT22;2689;50.954;7.116;2024-03-23T22:35:07;5.40;99.90
5334;DHT22;2689;50.954;7.116;2024-03-23T22:37:35;5.50;99.90
5334;DHT22;2689;50.954;7.116;2024-03-23T22:40:00;5.40;99.90
5334;DHT22;2689;50.954;7.116;2024-03-23T22:42:27;5.30;99.90
5334;DHT22;2689;50.954;7.116;2024-03-23T22:44:53;5.30;99.90
5334;DHT22;2689;50.954;7.116;2024-03-23T22:47:20;5.30;99.90
5334;DHT22;2689;50.954;7.116;2024-03-23T22:49:46;5.40;99.90
5334;DHT22;2689;50.954;7.116;2024-03-23T22:52:16;5.30;99.90
5334;DHT22;2689;50.954;7.116;2024-03-23T22:54:41;5.10;99.90
5334;DHT22;2689;50.954;7.116;2024-03-23T22:57:08;5.20;99.90
5334;DHT22;2689;50.954;7.116;2024-03-23T22:59:34;5.30;99.90
5334;DHT22;2689;50.954;7.116;2024-03-23T23:02:01;5.10;99.90
5334;DHT22;2689;50.954;7.116;2024-03-23T23:04:27;5.20;99.90
5334;DHT22;2689;50.954;7.116;2024-03-23T23:06:56;5.30;99.90
5334;DHT22;2689;50.954;7.116;2024-03-23T23:09:24;5.20;99.90
5334;DHT22;2689;50.954;7.116;2024-03-23T23:11:50;5.30;99.90
5334;DHT22;2689;50.954;7.116;2024-03-23T23:14:16;5.50;99.90
5334;DHT22;2689;50.954;7.116;2024-03-23T23:16:43;5.60;99.90
5334;DHT22;2689;50.954;7.116;2024-03-23T23:19:09;5.60;99.90
5334;DHT22;2689;50.954;7.116;2024-03-23T23:21:36;5.60;99.90
5334;DHT22;2689;50.954;7.116;2024-03-23T23:24:03;5.70;99.90
5334;DHT22;2689;50.954;7.116;2024-03-23T23:26:31;5.60;99.90
5334;DHT22;2689;50.954;7.116;2024-03-23T23:28:57;5.70;99.90
5334;DHT22;2689;50.954;7.116;2024-03-23T23:31:23;5.60;99.90
5334;DHT22;2689;50.954;7.116;2024-03-23T23:33:49;5.60;99.90
5334;DHT22;2689;50.954;7.116;2024-03-23T23:36:18;5.60;99.90
5334;DHT22;2689;50.954;7.116;2024-03-23T23:38:48;5.60;99.90
5334;DHT22;2689;50.954;7.116;2024-03-23T23:41:15;5.60;99.90
5334;DHT22;2689;50.954;7.116;2024-03-23T23:43:53;5.60;99.90
5334;DHT22;2689;50.954;7.116;2024-03-23T23:46:20;5.60;99.90
5334;DHT22;2689;50.954;7.116;2024-03-23T23:48:45;5.60;99.90
5334;DHT22;2689;50.954;7.116;2024-03-23T23:51:12;5.60;99.90
5334;DHT22;2689;50.954;7.116;2024-03-23T23:53:38;5.70;99.90
5334;DHT22;2689;50.954;7.116;2024-03-23T23:56:05;5.70;99.90
5334;DHT22;2689;50.954;7.116;2024-03-23T23:58:31;5.70;99.90
